createdAt,value
2022-09-12T03:48:43.951Z,60.31
2022-09-12T03:50:46.576Z,59.81
2022-09-12T03:52:49.568Z,59.56
2022-09-12T03:54:52.317Z,58.88
2022-09-12T03:56:55.000Z,58.77
2022-09-12T03:58:57.776Z,58.63
2022-09-12T04:01:00.557Z,58.81
2022-09-12T04:03:03.175Z,58.46
2022-09-12T04:05:07.840Z,58.23
2022-09-12T04:07:10.890Z,57.95
2022-09-12T04:09:13.561Z,57.88
2022-09-12T04:11:16.547Z,57.80
2022-09-12T04:13:19.182Z,57.78
2022-09-12T04:15:21.837Z,57.99
2022-09-12T04:17:24.506Z,57.71
2022-09-12T04:19:29.468Z,57.82
2022-09-12T04:21:33.816Z,57.94
2022-09-12T04:23:36.763Z,57.46
2022-09-12T04:25:39.410Z,57.45
2022-09-12T04:27:42.538Z,57.56
2022-09-12T04:29:45.185Z,57.42
2022-09-12T04:31:48.051Z,57.54
2022-09-12T04:33:54.831Z,57.68
2022-09-12T04:35:57.632Z,57.37
2022-09-12T04:38:01.643Z,57.46
2022-09-12T04:40:04.525Z,57.20
2022-09-12T04:42:07.435Z,57.23
2022-09-12T04:44:13.214Z,57.50
2022-09-12T04:46:19.702Z,57.48
2022-09-12T04:48:22.387Z,57.33
2022-09-12T04:50:25.134Z,57.52
2022-09-12T04:52:27.950Z,57.10
2022-09-12T04:54:32.018Z,57.30
2022-09-12T04:56:38.558Z,57.13
2022-09-12T04:58:41.200Z,56.90
2022-09-12T05:00:43.920Z,56.98
2022-09-12T05:02:46.545Z,56.91
2022-09-12T05:04:49.160Z,56.95
2022-09-12T05:06:51.804Z,57.27
2022-09-12T05:08:55.933Z,56.73
2022-09-12T05:11:03.573Z,56.77
2022-09-12T05:13:06.311Z,56.76
2022-09-12T05:15:10.144Z,57.12
2022-09-12T05:17:12.958Z,57.09
2022-09-12T05:19:15.577Z,57.05
2022-09-12T05:21:20.319Z,56.86
2022-09-12T05:23:24.748Z,56.77
2022-09-12T05:25:27.451Z,57.01
2022-09-12T05:27:31.526Z,57.06
2022-09-12T05:29:34.207Z,56.81
2022-09-12T05:31:37.626Z,56.87
2022-09-12T05:33:43.137Z,57.01
2022-09-12T05:35:52.304Z,57.09
2022-09-12T05:37:54.981Z,57.03
2022-09-12T05:39:59.655Z,56.90
2022-09-12T05:42:02.506Z,56.94
2022-09-12T05:44:08.697Z,56.81
2022-09-12T05:46:13.376Z,56.84
2022-09-12T05:48:18.387Z,56.63
2022-09-12T05:50:23.809Z,56.66
2022-09-12T05:52:26.578Z,56.67
2022-09-12T05:54:31.687Z,56.61
2022-09-12T05:56:38.988Z,56.62
2022-09-12T05:58:43.384Z,56.96
2022-09-12T06:00:49.574Z,57.04
2022-09-12T06:02:53.099Z,56.58
2022-09-12T06:04:57.191Z,56.74
2022-09-12T06:06:59.939Z,56.79
2022-09-12T06:09:05.401Z,56.68
2022-09-12T06:11:09.400Z,56.88
2022-09-12T06:13:12.042Z,56.76
2022-09-12T06:15:16.572Z,57.10
2022-09-12T06:17:20.780Z,56.61
2022-09-12T06:19:25.226Z,56.80
2022-09-12T06:21:28.994Z,56.81
2022-09-12T06:23:31.799Z,56.91
2022-09-12T06:25:34.492Z,56.88
2022-09-12T06:27:37.142Z,56.56
2022-09-12T06:29:39.856Z,56.86
2022-09-12T06:31:44.252Z,56.46
2022-09-12T06:33:51.735Z,56.56
2022-09-12T06:35:54.884Z,56.42
2022-09-12T06:37:57.722Z,56.35
2022-09-12T06:40:02.047Z,56.51
2022-09-12T06:42:05.317Z,56.72
2022-09-12T06:44:08.094Z,56.49
2022-09-12T06:46:13.265Z,56.40
2022-09-12T06:48:16.313Z,56.63
2022-09-12T06:50:20.707Z,56.60
2022-09-12T06:52:23.388Z,56.76
2022-09-12T06:54:26.419Z,56.35
2022-09-12T06:56:30.071Z,56.68
2022-09-12T06:58:32.749Z,56.55
2022-09-12T07:00:35.556Z,56.55
2022-09-12T07:02:38.302Z,56.54
2022-09-12T07:04:41.486Z,56.50
2022-09-12T07:06:46.020Z,56.44
2022-09-12T07:08:49.575Z,56.42
2022-09-12T07:10:52.782Z,56.28
2022-09-12T07:12:56.137Z,56.26
2022-09-12T07:14:59.277Z,56.44
2022-09-12T07:17:02.151Z,56.10
2022-09-12T07:19:07.108Z,56.04
2022-09-12T07:21:14.180Z,56.19
2022-09-12T07:23:18.340Z,56.11
2022-09-12T07:25:24.611Z,56.44
2022-09-12T07:27:28.301Z,56.24
2022-09-12T07:29:37.210Z,56.18
2022-09-12T07:31:42.246Z,56.22
2022-09-12T07:33:49.056Z,56.13
2022-09-12T07:35:54.643Z,56.44
2022-09-12T07:37:57.687Z,56.26
2022-09-12T07:40:02.317Z,56.15
2022-09-12T07:42:05.887Z,56.38
2022-09-12T07:44:08.906Z,56.34
2022-09-12T07:46:12.699Z,56.49
2022-09-12T07:48:17.057Z,56.26
2022-09-12T07:50:20.008Z,56.25
2022-09-12T07:52:23.172Z,56.42
2022-09-12T07:54:26.647Z,56.21
2022-09-12T07:56:34.607Z,56.38
2022-09-12T07:58:45.378Z,56.29
2022-09-12T08:00:50.240Z,56.09
2022-09-12T08:02:54.439Z,56.32
2022-09-12T08:04:58.126Z,56.62
2022-09-12T08:07:00.902Z,56.14
2022-09-12T08:09:04.759Z,56.53
2022-09-12T08:11:10.034Z,56.11
2022-09-12T08:13:14.316Z,56.22
2022-09-12T08:15:17.769Z,56.09
2022-09-12T08:17:23.221Z,56.18
2022-09-12T08:19:29.135Z,56.37
2022-09-12T08:21:33.596Z,56.30
2022-09-12T08:23:36.643Z,56.20
2022-09-12T08:25:39.573Z,56.07
2022-09-12T08:27:43.725Z,56.28
2022-09-12T08:29:47.959Z,55.93
2022-09-12T08:31:57.016Z,56.11
2022-09-12T08:34:00.840Z,55.83
2022-09-12T08:36:06.211Z,55.93
2022-09-12T08:38:09.021Z,55.71
2022-09-12T08:40:19.111Z,55.68
2022-09-12T08:42:41.682Z,55.93
2022-09-12T08:45:05.081Z,55.93
2022-09-12T08:47:19.428Z,55.83
2022-09-12T08:49:29.107Z,55.53
2022-09-12T08:51:34.472Z,55.86
2022-09-12T08:53:38.411Z,55.80
2022-09-12T08:55:45.972Z,55.45
2022-09-12T08:57:48.613Z,55.68
2022-09-12T08:59:54.138Z,55.89
2022-09-12T09:02:01.219Z,55.41
2022-09-12T09:04:31.644Z,55.69
2022-09-12T09:07:01.679Z,55.49
2022-09-12T09:09:09.896Z,55.36
2022-09-12T09:11:26.344Z,55.21
2022-09-12T09:14:01.910Z,55.32
2022-09-12T09:16:16.932Z,55.16
2022-09-12T09:18:23.822Z,55.44
2022-09-12T09:20:31.619Z,55.38
2022-09-12T09:22:43.784Z,54.97
2022-09-12T09:24:53.159Z,55.15
2022-09-12T09:27:02.000Z,55.01
2022-09-12T09:29:15.365Z,54.98
2022-09-12T09:31:22.792Z,54.98
2022-09-12T09:33:29.561Z,54.85
2022-09-12T09:35:42.180Z,55.21
2022-09-12T09:37:58.695Z,54.99
2022-09-12T09:40:13.197Z,55.09
2022-09-12T09:42:35.551Z,55.13
2022-09-12T09:44:39.130Z,54.95
2022-09-12T09:46:43.439Z,55.01
2022-09-12T09:48:49.557Z,54.97
2022-09-12T09:50:53.230Z,55.03
2022-09-12T09:52:59.904Z,54.69
2022-09-12T09:55:03.324Z,54.90
2022-09-12T09:57:06.221Z,54.69
2022-09-12T09:59:11.757Z,54.99
2022-09-12T10:01:17.464Z,54.80
2022-09-12T10:03:33.235Z,54.72
2022-09-12T10:05:46.105Z,54.98
2022-09-12T10:07:51.461Z,54.56
2022-09-12T10:10:06.866Z,54.53
2022-09-12T10:12:22.012Z,54.54
2022-09-12T10:14:37.653Z,55.04
2022-09-12T10:16:52.658Z,54.94
2022-09-12T10:18:58.480Z,54.68
2022-09-12T10:21:03.596Z,55.02
2022-09-12T10:23:30.412Z,54.51
2022-09-12T10:25:33.201Z,55.01
2022-09-12T10:27:36.959Z,54.78
2022-09-12T10:29:43.900Z,54.43
2022-09-12T10:31:52.075Z,54.73
2022-09-12T10:33:58.377Z,54.36
2022-09-12T10:36:01.689Z,54.23
2022-09-12T10:38:07.305Z,54.60
2022-09-12T10:40:24.753Z,54.54
2022-09-12T10:42:48.919Z,54.43
2022-09-12T10:44:55.471Z,54.24
2022-09-12T10:46:59.698Z,54.24
2022-09-12T10:49:22.898Z,54.47
2022-09-12T10:51:29.815Z,54.71
2022-09-12T10:53:41.766Z,54.38
2022-09-12T10:56:02.298Z,54.34
2022-09-12T10:58:17.826Z,54.11
2022-09-12T11:00:27.622Z,54.10
2022-09-12T11:02:32.181Z,54.49
2022-09-12T11:04:53.841Z,54.22
2022-09-12T11:07:10.434Z,54.42
2022-09-12T11:09:24.267Z,54.10
2022-09-12T11:11:43.965Z,53.67
2022-09-12T11:14:01.010Z,53.69
2022-09-12T11:16:15.733Z,54.14
2022-09-12T11:18:38.016Z,53.90
2022-09-12T11:20:56.500Z,53.82
2022-09-12T11:23:31.395Z,53.47
2022-09-12T11:25:41.711Z,53.74
2022-09-12T11:28:13.308Z,53.53
2022-09-12T11:30:18.697Z,53.29
2022-09-12T11:33:01.458Z,53.24
2022-09-12T11:35:17.128Z,53.39
2022-09-12T11:37:38.556Z,53.15
2022-09-12T11:39:44.586Z,52.80
2022-09-12T11:41:53.525Z,53.10
2022-09-12T11:44:01.523Z,52.66
2022-09-12T11:46:13.441Z,53.13
2022-09-12T11:48:37.624Z,52.89
2022-09-12T11:50:42.828Z,53.02
2022-09-12T11:52:46.856Z,52.96
2022-09-12T11:54:57.790Z,52.56
2022-09-12T11:57:09.589Z,52.72
2022-09-12T11:59:19.459Z,52.44
2022-09-12T12:01:27.271Z,52.90
2022-09-12T12:03:35.613Z,52.89
2022-09-12T12:05:44.129Z,52.71
2022-09-12T12:07:54.039Z,52.68
2022-09-12T12:12:22.473Z,52.68
2022-09-12T12:14:31.108Z,52.14
2022-09-12T12:16:37.138Z,52.46
2022-09-12T12:18:41.316Z,51.78
2022-09-12T12:20:44.725Z,52.18
2022-09-12T12:22:54.115Z,52.04
2022-09-12T12:25:05.150Z,51.61
2022-09-12T12:27:25.643Z,51.47
2022-09-12T12:29:44.323Z,51.31
2022-09-12T12:32:21.299Z,51.05
2022-09-12T12:34:29.447Z,51.06
2022-09-12T12:36:36.593Z,51.27
2022-09-12T12:38:41.600Z,50.95
2022-09-12T12:40:44.746Z,50.91
2022-09-12T12:42:59.770Z,50.60
2022-09-12T12:45:06.633Z,50.47
2022-09-12T12:47:18.501Z,50.70
2022-09-12T12:49:28.318Z,50.40
2022-09-12T12:51:36.007Z,50.47
2022-09-12T12:53:43.087Z,50.57
2022-09-12T12:55:50.586Z,50.41
2022-09-12T12:57:55.128Z,49.92
2022-09-12T13:00:02.100Z,50.23
2022-09-12T13:02:05.927Z,49.87
2022-09-12T13:04:16.900Z,49.78
2022-09-12T13:06:32.570Z,49.93
2022-09-12T13:08:40.783Z,49.69
2022-09-12T13:10:52.881Z,49.60
2022-09-12T13:13:00.269Z,49.77
2022-09-12T13:15:06.145Z,49.34
2022-09-12T13:17:16.472Z,49.56
2022-09-12T13:19:27.394Z,49.54
2022-09-12T13:21:31.117Z,49.76
2022-09-12T13:23:35.712Z,49.56
2022-09-12T13:25:38.805Z,49.60
2022-09-12T13:27:58.817Z,49.31
2022-09-12T13:30:07.370Z,49.36
2022-09-12T13:32:10.342Z,49.34
2022-09-12T13:34:20.359Z,49.10
2022-09-12T13:36:51.394Z,49.15
2022-09-12T13:39:21.113Z,48.91
2022-09-12T13:41:40.390Z,48.81
2022-09-12T13:43:47.882Z,48.77
2022-09-12T13:45:53.769Z,48.58
2022-09-12T13:48:01.016Z,48.30
2022-09-12T13:50:06.912Z,48.56
2022-09-12T13:52:18.947Z,48.60
2022-09-12T13:54:24.586Z,48.11
2022-09-12T13:56:28.092Z,48.49
2022-09-12T13:58:33.112Z,48.31
2022-09-12T14:00:37.912Z,47.88
2022-09-12T14:02:41.596Z,47.91
2022-09-12T14:05:12.010Z,47.97
2022-09-12T14:07:19.069Z,47.84
2022-09-12T14:09:26.018Z,47.55
2022-09-12T14:11:31.474Z,47.30
2022-09-12T14:13:36.455Z,47.17
2022-09-12T14:15:46.397Z,47.11
2022-09-12T14:17:52.896Z,47.18
2022-09-12T14:19:58.648Z,46.72
2022-09-12T14:22:02.357Z,47.29
2022-09-12T14:24:08.521Z,46.88
2022-09-12T14:26:14.850Z,46.62
2022-09-12T14:28:23.671Z,46.77
2022-09-12T14:30:31.101Z,46.67
2022-09-12T14:32:36.595Z,46.88
2022-09-12T14:34:40.062Z,46.53
2022-09-12T14:36:46.986Z,46.25
2022-09-12T14:38:52.632Z,46.23
2022-09-12T14:41:02.015Z,46.30
2022-09-12T14:43:05.222Z,46.44
2022-09-12T14:45:17.271Z,46.37
2022-09-12T14:47:23.375Z,46.31
2022-09-12T14:49:32.814Z,46.13
2022-09-12T14:51:38.049Z,46.55
2022-09-12T14:53:49.277Z,46.31
2022-09-12T14:55:56.510Z,46.25
2022-09-12T14:58:15.637Z,46.70
2022-09-12T15:00:24.178Z,46.34
2022-09-12T15:02:27.670Z,46.09
2022-09-12T15:04:42.034Z,46.42
2022-09-12T15:06:45.102Z,46.40
2022-09-12T15:08:47.814Z,46.63
2022-09-12T15:10:50.703Z,46.85
2022-09-12T15:13:14.120Z,46.71
2022-09-12T15:15:19.191Z,46.85
2022-09-12T15:17:22.398Z,46.66
2022-09-12T15:19:25.141Z,46.99
2022-09-12T15:21:29.274Z,46.79
2022-09-12T15:23:35.790Z,47.01
2022-09-12T15:25:38.749Z,47.11
2022-09-12T15:27:42.363Z,47.17
2022-09-12T15:29:45.130Z,46.91
2022-09-12T15:31:48.706Z,47.02
2022-09-12T15:33:51.335Z,47.14
2022-09-12T15:35:54.270Z,47.48
2022-09-12T15:37:58.355Z,47.31
2022-09-12T15:40:01.646Z,47.11
2022-09-12T15:42:04.441Z,47.10
2022-09-12T15:44:09.016Z,47.35
2022-09-12T15:46:13.138Z,47.46
2022-09-12T15:48:15.786Z,47.52
2022-09-12T15:50:18.569Z,47.42
2022-09-12T15:52:21.257Z,47.72
2022-09-12T15:54:25.239Z,47.29
2022-09-12T15:56:27.882Z,47.41
2022-09-12T15:58:30.928Z,47.75
2022-09-12T16:00:33.554Z,47.48
2022-09-12T16:02:36.218Z,47.86
2022-09-12T16:04:38.952Z,47.66
2022-09-12T16:06:41.699Z,47.96
2022-09-12T16:08:44.503Z,48.12
2022-09-12T16:10:53.326Z,47.89
2022-09-12T16:12:56.066Z,47.91
2022-09-12T16:14:58.812Z,47.76
2022-09-12T16:17:01.527Z,48.24
2022-09-12T16:19:06.236Z,47.80
2022-09-12T16:21:12.774Z,48.11
2022-09-12T16:23:17.992Z,48.39
2022-09-12T16:25:20.652Z,48.33
2022-09-12T16:27:24.774Z,48.43
2022-09-12T16:29:28.975Z,48.65
2022-09-12T16:31:31.976Z,48.34
2022-09-12T16:33:36.914Z,48.34
2022-09-12T16:35:39.636Z,48.27
2022-09-12T16:37:42.518Z,48.71
2022-09-12T16:39:45.392Z,48.58
2022-09-12T16:41:48.199Z,48.54
2022-09-12T16:43:52.932Z,49.07
2022-09-12T16:46:02.816Z,48.97
2022-09-12T16:48:05.692Z,48.79
2022-09-12T16:50:09.796Z,48.83
2022-09-12T16:52:16.431Z,48.83
2022-09-12T16:54:19.110Z,48.90
2022-09-12T16:56:22.325Z,48.97
2022-09-12T16:58:25.424Z,49.26
2022-09-12T17:00:29.451Z,49.48
2022-09-12T17:02:32.178Z,49.27
2022-09-12T17:04:37.166Z,49.38
2022-09-12T17:06:40.060Z,49.07
2022-09-12T17:08:44.737Z,49.46
2022-09-12T17:10:47.736Z,49.49
2022-09-12T17:12:50.538Z,49.76
2022-09-12T17:14:53.181Z,49.53
2022-09-12T17:16:57.311Z,49.67
2022-09-12T17:19:00.025Z,49.66
2022-09-12T17:21:02.715Z,49.89
2022-09-12T17:23:09.522Z,50.23
2022-09-12T17:25:12.610Z,50.12
2022-09-12T17:27:15.279Z,49.91
2022-09-12T17:29:18.160Z,50.17
2022-09-12T17:31:20.974Z,50.18
2022-09-12T17:33:25.850Z,50.75
2022-09-12T17:35:29.065Z,50.77
2022-09-12T17:37:32.273Z,50.30
2022-09-12T17:39:34.992Z,50.70
2022-09-12T17:41:37.987Z,50.83
2022-09-12T17:43:41.016Z,50.63
2022-09-12T17:45:43.653Z,50.98
2022-09-12T17:47:47.181Z,50.72
2022-09-12T17:49:52.994Z,51.10
2022-09-12T17:51:56.491Z,51.21
2022-09-12T17:54:01.060Z,50.86
2022-09-12T17:56:04.412Z,50.95
2022-09-12T17:58:07.803Z,50.82
2022-09-12T18:00:11.804Z,51.37
2022-09-12T18:02:13.741Z,51.17
2022-09-12T18:04:17.232Z,50.93
2022-09-12T18:06:21.231Z,51.47
2022-09-12T18:08:25.079Z,51.11
2022-09-12T18:10:27.856Z,51.21
2022-09-12T18:12:30.602Z,50.93
2022-09-12T18:14:33.247Z,51.05
2022-09-12T18:16:36.092Z,51.33
2022-09-12T18:18:39.439Z,51.29
2022-09-12T18:20:51.474Z,51.17
2022-09-12T18:22:55.889Z,51.59
2022-09-12T18:24:58.577Z,51.48
2022-09-12T18:27:01.796Z,51.39
2022-09-12T18:29:05.754Z,51.31
2022-09-12T18:31:12.775Z,51.29
2022-09-12T18:33:15.740Z,51.49
2022-09-12T18:35:21.665Z,51.56
2022-09-12T18:37:26.764Z,51.51
2022-09-12T18:39:30.743Z,51.73
2022-09-12T18:41:33.863Z,51.54
2022-09-12T18:43:37.046Z,51.57
2022-09-12T18:45:40.182Z,51.60
2022-09-12T18:47:42.915Z,51.45
2022-09-12T18:49:46.571Z,51.54
2022-09-12T18:51:49.227Z,51.68
2022-09-12T18:53:56.871Z,51.48
2022-09-12T18:56:06.153Z,51.55
2022-09-12T18:58:08.901Z,51.23
2022-09-12T19:00:13.605Z,51.47
2022-09-12T19:02:17.212Z,51.44
2022-09-12T19:04:19.890Z,51.45
2022-09-12T19:06:25.133Z,51.75
2022-09-12T19:08:28.343Z,51.69
2022-09-12T19:10:31.356Z,51.46
2022-09-12T19:12:35.449Z,51.48
2022-09-12T19:14:38.275Z,51.45
2022-09-12T19:16:40.944Z,51.86
2022-09-12T19:18:44.049Z,51.78
2022-09-12T19:20:51.869Z,52.32
2022-09-12T19:22:54.599Z,52.20
2022-09-12T19:24:57.369Z,52.14
2022-09-12T19:29:04.824Z,52.31
2022-09-12T19:31:08.752Z,52.21
2022-09-12T19:33:12.208Z,52.83
2022-09-12T19:35:15.218Z,52.60
2022-09-12T19:37:18.674Z,52.97
2022-09-12T19:39:21.914Z,52.84
2022-09-12T19:41:24.642Z,52.91
2022-09-12T19:43:27.590Z,53.08
2022-09-12T19:45:31.712Z,52.86
2022-09-12T19:47:34.713Z,53.10
2022-09-12T19:49:37.403Z,53.04
2022-09-12T19:51:40.478Z,53.04
2022-09-12T19:53:43.423Z,53.11
2022-09-12T19:55:46.897Z,53.71
2022-09-12T19:57:55.096Z,53.52
2022-09-12T19:59:57.706Z,53.79
2022-09-12T20:02:02.119Z,53.46
2022-09-12T20:04:05.373Z,53.86
2022-09-12T20:06:10.227Z,53.87
2022-09-12T20:08:12.769Z,53.76
2022-09-12T20:10:15.999Z,53.63
2022-09-12T20:12:18.981Z,53.64
2022-09-12T20:14:22.176Z,53.68
2022-09-12T20:16:29.229Z,53.75
2022-09-12T20:18:34.606Z,53.78
2022-09-12T20:20:39.490Z,53.89
2022-09-12T20:22:42.268Z,53.93
2022-09-12T20:24:45.075Z,53.83
2022-09-12T20:26:47.786Z,54.04
2022-09-12T20:28:52.025Z,53.86
2022-09-12T20:30:54.743Z,54.15
2022-09-12T20:32:57.904Z,54.15
2022-09-12T20:35:02.585Z,54.26
2022-09-12T20:37:05.222Z,54.02
2022-09-12T20:39:08.038Z,54.23
2022-09-12T20:41:12.287Z,54.32
2022-09-12T20:43:15.024Z,54.05
2022-09-12T20:45:18.106Z,53.85
2022-09-12T20:47:20.751Z,53.64
2022-09-12T20:49:23.938Z,53.69
2022-09-12T20:51:30.200Z,53.82
2022-09-12T20:53:35.007Z,54.19
2022-09-12T20:55:38.050Z,53.87
2022-09-12T20:57:40.827Z,53.78
2022-09-12T20:59:43.467Z,54.12
2022-09-12T21:01:46.117Z,54.01
2022-09-12T21:03:49.674Z,53.79
2022-09-12T21:05:52.959Z,53.90
2022-09-12T21:07:56.915Z,54.03
2022-09-12T21:09:59.602Z,54.02
2022-09-12T21:12:02.694Z,53.54
2022-09-12T21:14:05.443Z,53.79
2022-09-12T21:16:11.490Z,54.05
2022-09-12T21:18:15.296Z,53.62
2022-09-12T21:20:18.498Z,53.93
2022-09-12T21:22:21.178Z,53.97
